Aérodrome :
LOGIN :

S'inscrire | Disclaimer

   EN    FR    IT 

 










Légende :    VFR   VFR Marginal   IFR   IFR Intensif   IFR Très Intensif
Visi : 
Plafond : 
>= 8 km
>= 3000ft
5 à 8 km
1000 à 3000 ft
1500m à 5 km
500 à 1000 ft
800 à 1500m
200 à 500 ft
< 800m
< 200 ft
Symboles :   Orages  Brouillard  Fortes neiges  Fortes précipitations  Vent > 20 kt
SIGMETs :   Divers  Orages  Givrage  Turbulence  Onde Orograph.  Cendres Volcan.







- Altitude de l'aérodrome : 659 ft
- Code IATA : LGG


EBLG - Liège

DERNIER METAR :
  • 170350Z 23004KT CAVOK 14/11 Q1022 NOSIG

METARs EXPIRÉS :
  • 170320Z 23004KT CAVOK 15/11 Q1022 NOSIG
  • 170250Z 25003KT CAVOK 15/11 Q1022 NOSIG
  • 170220Z 22006KT CAVOK 16/11 Q1022 NOSIG
  • 170150Z 19005KT CAVOK 16/11 Q1022 NOSIG
  • 170120Z 19006KT CAVOK 16/11 Q1022 NOSIG

TAF TAF EBLG
Valide du 17 à 00h jusqu'au 18 à 06h UTC


162300Z 1700/1806 22005KT CAVOK
TEMPO 1701/1704 BKN012
PROB30 1704/1707 4000 BR
PROB40 1802/1806 0800 FG
Pas de NOTAMs connus pour ce terrain.



MET'MAP, la Météo Aéronautique d'un coup d'oeil ! - Copyright ORBIFLY Décembre 2007 - Disclaimer

ORBIFLY MET'MAP TEAM :

Programmation & Développement : Alexandra Zaïnal
Conception & Développement : Baudouin d'Aumeries
Co-Programmation & Développement : Marc-Olivier Méhu
Soutien technique & logistique : Manuel Goepfert

Contact : metmap@orbifly.com




SOURCES & CREDITS :

   NOAA